Time;durP1;ratioP1;P1;durP2;ratioP2;P2;SDS_P1;SDS_P2;PMS_P1;PMS_P2;Temp;Humidity;BMP_temperature;BMP_pressure;BME280_temperature;BME280_humidity;BME280_pressure;Samples;Min_cycle;Max_cycle;Signal;HPM_P1;HPM_P2
2021/06/30 00:00:15;;;;;;;9.25;7.68;;;14.00;99.90;;;;;;5070918;28;20044;-70
2021/06/30 00:02:41;;;;;;;10.15;7.18;;;13.80;99.90;;;;;;5071170;28;20415;-71
2021/06/30 00:05:07;;;;;;;11.38;7.82;;;13.80;99.90;;;;;;5070625;28;20024;-70
2021/06/30 00:07:36;;;;;;;11.30;8.70;;;13.80;99.90;;;;;;5071115;28;20020;-70
2021/06/30 00:10:04;;;;;;;10.63;7.50;;;13.80;99.90;;;;;;5070033;28;20032;-70
2021/06/30 00:12:30;;;;;;;8.23;7.53;;;13.80;99.90;;;;;;5084195;28;20032;-70
2021/06/30 00:14:56;;;;;;;8.63;7.85;;;13.80;99.90;;;;;;5071686;28;20059;-71
2021/06/30 00:17:22;;;;;;;10.90;7.93;;;13.80;99.90;;;;;;5070888;28;20021;-70
2021/06/30 00:19:48;;;;;;;13.48;8.00;;;13.80;99.90;;;;;;5070516;28;20025;-70
2021/06/30 00:22:14;;;;;;;9.65;7.53;;;13.80;99.90;;;;;;5070476;28;20123;-70
2021/06/30 00:24:39;;;;;;;9.90;7.65;;;13.80;99.90;;;;;;5070926;28;20029;-70
2021/06/30 00:27:05;;;;;;;10.25;8.38;;;13.80;99.90;;;;;;5076711;28;20020;-70
2021/06/30 00:29:31;;;;;;;9.20;7.63;;;13.70;99.90;;;;;;5091064;28;20077;-70
2021/06/30 00:31:57;;;;;;;9.75;8.30;;;13.70;99.90;;;;;;5087692;28;20107;-69
2021/06/30 00:34:23;;;;;;;9.18;8.27;;;13.80;99.90;;;;;;5076078;28;20490;-71
2021/06/30 00:36:48;;;;;;;14.02;8.77;;;13.70;99.90;;;;;;5084582;28;20024;-71
2021/06/30 00:39:20;;;;;;;10.55;8.80;;;13.70;99.90;;;;;;5070821;28;20396;-72
2021/06/30 00:41:49;;;;;;;12.32;8.55;;;13.80;99.90;;;;;;5070760;28;20025;-71
2021/06/30 00:44:14;;;;;;;11.10;7.90;;;13.70;99.90;;;;;;5074887;28;20024;-70
2021/06/30 00:46:40;;;;;;;8.98;8.20;;;13.70;99.90;;;;;;5080562;28;20090;-71
2021/06/30 00:49:08;;;;;;;14.27;8.90;;;13.70;99.90;;;;;;5069814;28;20017;-70
2021/06/30 00:51:35;;;;;;;11.20;8.60;;;13.70;99.90;;;;;;5071018;28;20032;-71
2021/06/30 00:54:02;;;;;;;11.68;8.20;;;13.70;99.90;;;;;;5070172;28;20021;-70
2021/06/30 00:56:29;;;;;;;10.75;8.65;;;13.70;99.90;;;;;;5070508;28;20555;-71
2021/06/30 00:58:57;;;;;;;9.65;8.75;;;13.70;99.90;;;;;;5084174;28;20069;-71
2021/06/30 01:01:23;;;;;;;10.27;8.07;;;13.70;99.90;;;;;;5084947;28;20020;-70
2021/06/30 01:03:50;;;;;;;13.30;8.30;;;13.70;99.90;;;;;;5070416;28;20046;-70
2021/06/30 01:06:16;;;;;;;11.70;8.85;;;13.70;99.90;;;;;;5070311;28;20021;-71
2021/06/30 01:08:42;;;;;;;9.68;8.45;;;13.70;99.90;;;;;;5069932;28;20090;-70
2021/06/30 01:11:09;;;;;;;11.73;9.15;;;13.70;99.90;;;;;;5070062;28;20021;-70
2021/06/30 01:13:35;;;;;;;10.63;9.35;;;13.70;99.90;;;;;;5070469;28;20465;-69
2021/06/30 01:16:01;;;;;;;10.13;9.15;;;13.70;99.90;;;;;;5069951;28;20107;-70
2021/06/30 01:18:30;;;;;;;10.30;9.18;;;13.70;99.90;;;;;;5090206;28;20049;-71
2021/06/30 01:20:57;;;;;;;10.13;8.93;;;13.70;99.90;;;;;;5092497;28;20032;-71
2021/06/30 01:23:23;;;;;;;11.05;9.15;;;13.60;99.90;;;;;;5094784;28;20036;-70
2021/06/30 01:25:49;;;;;;;16.52;9.57;;;13.60;99.90;;;;;;5094829;28;20488;-71
2021/06/30 01:28:16;;;;;;;11.38;9.73;;;13.60;99.90;;;;;;5093847;28;20165;-71
2021/06/30 01:30:43;;;;;;;9.52;8.52;;;13.70;99.90;;;;;;5094170;28;20029;-72
2021/06/30 01:33:10;;;;;;;11.90;10.05;;;13.70;99.90;;;;;;5093697;28;20094;-71
2021/06/30 01:35:35;;;;;;;15.77;9.48;;;13.60;99.90;;;;;;5088347;28;20429;-70
2021/06/30 01:38:01;;;;;;;10.77;9.68;;;13.70;99.90;;;;;;5085702;28;20013;-71
2021/06/30 01:40:28;;;;;;;10.38;9.25;;;13.70;99.90;;;;;;5075869;28;20162;-70
2021/06/30 01:42:55;;;;;;;10.90;9.07;;;13.70;99.90;;;;;;5074196;28;20029;-71
2021/06/30 01:45:22;;;;;;;9.18;8.30;;;13.70;99.90;;;;;;5072687;28;20051;-71
2021/06/30 01:47:48;;;;;;;9.88;8.38;;;13.70;99.90;;;;;;5073699;28;20020;-71
2021/06/30 01:50:15;;;;;;;10.88;7.20;;;13.70;99.90;;;;;;5073355;28;20024;-70
2021/06/30 01:52:42;;;;;;;8.02;7.32;;;13.60;99.90;;;;;;5073189;28;20468;-70
2021/06/30 01:55:09;;;;;;;12.65;7.00;;;13.60;99.90;;;;;;5073486;28;20408;-71
2021/06/30 01:57:46;;;;;;;7.00;6.35;;;13.50;99.90;;;;;;5073044;28;20118;-70
2021/06/30 02:00:14;;;;;;;7.50;6.80;;;13.50;99.90;;;;;;5072968;28;20040;-70
2021/06/30 02:02:40;;;;;;;10.55;6.38;;;13.50;99.90;;;;;;5073099;28;20013;-71
2021/06/30 02:05:12;;;;;;;7.90;6.60;;;13.50;99.90;;;;;;5072812;28;20484;-70
2021/06/30 02:07:41;;;;;;;7.55;6.53;;;13.40;99.90;;;;;;5072932;28;20468;-70
2021/06/30 02:10:09;;;;;;;7.95;5.95;;;13.50;99.90;;;;;;5072933;28;20380;-70
2021/06/30 02:12:35;;;;;;;10.65;7.43;;;13.50;99.90;;;;;;5054540;28;20071;-70
2021/06/30 02:15:03;;;;;;;7.45;6.85;;;13.50;99.90;;;;;;5072492;28;20062;-70
2021/06/30 02:17:29;;;;;;;8.77;6.32;;;13.50;99.90;;;;;;5073034;28;20031;-70
2021/06/30 02:19:54;;;;;;;9.40;6.55;;;13.50;99.90;;;;;;5072707;28;20029;-70
2021/06/30 02:22:20;;;;;;;7.82;6.75;;;13.50;99.90;;;;;;5072935;28;20507;-71
2021/06/30 02:24:45;;;;;;;8.25;5.95;;;13.40;99.90;;;;;;5073016;28;20012;-70
2021/06/30 02:27:11;;;;;;;8.00;7.32;;;13.40;99.90;;;;;;5072398;28;20021;-71
2021/06/30 02:29:37;;;;;;;9.45;7.30;;;13.40;99.90;;;;;;5072187;28;20055;-71
2021/06/30 02:32:04;;;;;;;8.15;7.05;;;13.40;99.90;;;;;;5071420;28;20054;-70
2021/06/30 02:34:29;;;;;;;9.45;7.13;;;13.40;99.90;;;;;;5071963;28;20050;-70
2021/06/30 02:36:55;;;;;;;9.55;7.50;;;13.50;99.90;;;;;;5087037;28;20028;-70
2021/06/30 02:39:20;;;;;;;8.73;7.22;;;13.40;99.90;;;;;;5073167;28;20061;-71
2021/06/30 02:41:46;;;;;;;8.52;7.00;;;13.50;99.90;;;;;;5072669;28;20020;-71
2021/06/30 02:44:12;;;;;;;8.88;6.85;;;13.50;99.90;;;;;;5072836;28;20423;-70
2021/06/30 02:46:37;;;;;;;7.78;6.97;;;13.50;99.90;;;;;;5084951;28;20082;-71
2021/06/30 02:49:03;;;;;;;7.97;7.15;;;13.50;99.90;;;;;;5092469;28;20120;-71
2021/06/30 02:51:29;;;;;;;9.43;6.85;;;13.60;99.90;;;;;;5093064;28;20032;-71
2021/06/30 02:53:54;;;;;;;10.45;7.13;;;13.50;99.90;;;;;;5092442;28;20066;-71
2021/06/30 02:56:21;;;;;;;8.20;7.40;;;13.50;99.90;;;;;;5092480;28;20479;-69
2021/06/30 02:58:48;;;;;;;9.52;7.35;;;13.60;99.90;;;;;;5092841;28;20115;-71
2021/06/30 03:01:17;;;;;;;8.90;7.85;;;13.50;99.90;;;;;;5092163;28;20490;-70
2021/06/30 03:03:43;;;;;;;10.70;7.35;;;13.50;99.90;;;;;;5092680;28;20039;-69
2021/06/30 03:06:09;;;;;;;9.05;7.68;;;13.50;99.90;;;;;;5092350;28;20070;-70
2021/06/30 03:08:35;;;;;;;8.23;6.93;;;13.50;99.90;;;;;;5092276;28;20024;-70
2021/06/30 03:11:01;;;;;;;11.48;7.40;;;13.50;99.90;;;;;;5092086;28;20016;-71
2021/06/30 03:13:27;;;;;;;12.05;7.30;;;13.50;99.90;;;;;;5092561;28;20425;-69
2021/06/30 03:15:52;;;;;;;9.50;6.82;;;13.60;99.90;;;;;;5092015;28;20043;-70
2021/06/30 03:18:18;;;;;;;9.15;6.72;;;13.50;99.90;;;;;;5092075;28;20056;-70
2021/06/30 03:20:44;;;;;;;8.85;7.05;;;13.50;99.90;;;;;;5092358;28;20042;-70
2021/06/30 03:23:10;;;;;;;8.07;7.05;;;13.50;99.90;;;;;;5091645;28;20086;-70
2021/06/30 03:25:36;;;;;;;10.18;7.00;;;13.50;99.90;;;;;;5092127;28;20024;-69
2021/06/30 03:28:02;;;;;;;7.07;6.47;;;13.50;99.90;;;;;;5091588;28;20103;-71
2021/06/30 03:30:31;;;;;;;8.93;7.07;;;13.50;99.90;;;;;;5091438;28;20089;-71
2021/06/30 03:32:57;;;;;;;10.18;7.65;;;13.50;99.90;;;;;;5092127;28;20471;-69
2021/06/30 03:35:22;;;;;;;11.40;6.72;;;13.50;99.90;;;;;;5087574;28;20130;-70
2021/06/30 03:37:48;;;;;;;11.27;7.82;;;13.50;99.90;;;;;;5071864;28;20025;-70
2021/06/30 03:40:14;;;;;;;8.48;7.38;;;13.50;99.90;;;;;;5087265;28;20171;-70
2021/06/30 03:42:40;;;;;;;15.10;7.80;;;13.50;99.90;;;;;;5092217;28;20525;-71
2021/06/30 03:45:06;;;;;;;10.52;7.50;;;13.50;99.90;;;;;;5090462;28;20040;-71
2021/06/30 03:47:32;;;;;;;8.05;7.25;;;13.50;99.90;;;;;;5085987;28;20025;-71
2021/06/30 03:49:58;;;;;;;9.65;7.32;;;13.50;99.90;;;;;;5071390;28;20113;-72
2021/06/30 03:52:24;;;;;;;9.40;7.70;;;13.50;99.90;;;;;;5071584;28;20029;-70
2021/06/30 03:54:50;;;;;;;10.80;7.90;;;13.50;99.90;;;;;;5071393;28;20028;-71
2021/06/30 03:57:16;;;;;;;8.32;7.30;;;13.50;99.90;;;;;;5086833;28;20491;-70
2021/06/30 03:59:41;;;;;;;8.70;7.60;;;13.50;99.90;;;;;;5091237;28;20043;-71
2021/06/30 04:02:07;;;;;;;8.43;7.43;;;13.50;99.90;;;;;;5091200;28;20032;-70
2021/06/30 04:04:32;;;;;;;8.52;7.70;;;13.40;99.90;;;;;;5076743;28;20028;-70
2021/06/30 04:06:58;;;;;;;8.23;7.45;;;13.50;99.90;;;;;;5092087;28;20191;-70
2021/06/30 04:09:23;;;;;;;10.88;7.72;;;13.40;99.90;;;;;;5073341;28;20016;-72
2021/06/30 04:11:49;;;;;;;8.50;7.60;;;13.50;99.90;;;;;;5070718;28;20025;-70
2021/06/30 04:14:15;;;;;;;7.85;7.20;;;13.50;99.90;;;;;;5070559;28;20029;-71
2021/06/30 04:16:40;;;;;;;11.30;7.53;;;13.40;99.90;;;;;;5071200;28;20481;-71
2021/06/30 04:19:06;;;;;;;7.93;7.03;;;13.50;99.90;;;;;;5071500;28;20108;-72
2021/06/30 04:21:32;;;;;;;7.38;6.68;;;13.50;99.90;;;;;;5071145;28;20028;-71
2021/06/30 04:23:57;;;;;;;6.60;5.97;;;13.50;99.90;;;;;;5071353;28;20108;-71
2021/06/30 04:26:23;;;;;;;8.60;6.85;;;13.50;99.90;;;;;;5074347;28;20020;-71
2021/06/30 04:28:49;;;;;;;6.93;6.22;;;13.50;99.90;;;;;;5081788;28;20033;-71
2021/06/30 04:31:15;;;;;;;6.53;5.93;;;13.50;99.90;;;;;;5087216;28;20030;-71
2021/06/30 04:33:41;;;;;;;8.48;6.93;;;13.50;99.90;;;;;;5090505;28;20467;-71
2021/06/30 04:36:06;;;;;;;7.47;6.80;;;13.50;99.90;;;;;;5081065;28;20078;-71
2021/06/30 04:38:32;;;;;;;7.93;6.82;;;13.50;99.90;;;;;;5070814;28;20024;-71
2021/06/30 04:40:58;;;;;;;9.30;7.10;;;13.60;99.90;;;;;;5070327;28;20037;-71
2021/06/30 04:43:23;;;;;;;7.57;6.85;;;13.50;99.90;;;;;;5071375;28;20419;-71
2021/06/30 04:45:49;;;;;;;8.02;7.07;;;13.50;99.90;;;;;;5070604;28;20110;-70
2021/06/30 04:48:19;;;;;;;7.65;6.25;;;13.50;99.90;;;;;;5070110;28;20025;-70
2021/06/30 04:50:45;;;;;;;8.02;6.00;;;13.60;99.90;;;;;;5071022;28;20033;-71
2021/06/30 04:53:10;;;;;;;9.82;7.18;;;13.50;99.90;;;;;;5070276;28;20062;-70
2021/06/30 04:55:36;;;;;;;11.32;7.43;;;13.50;99.90;;;;;;5071705;28;20020;-71
2021/06/30 04:58:05;;;;;;;8.93;8.02;;;13.50;99.90;;;;;;5074829;28;20427;-71
2021/06/30 05:00:31;;;;;;;8.65;7.38;;;13.40;99.90;;;;;;5074274;28;20051;-70
2021/06/30 05:02:59;;;;;;;11.50;8.50;;;13.40;99.90;;;;;;5074848;28;20115;-71
2021/06/30 05:05:25;;;;;;;11.52;8.85;;;13.40;99.90;;;;;;5074672;28;20123;-71
2021/06/30 05:07:50;;;;;;;17.17;9.52;;;13.40;99.90;;;;;;5073987;28;20100;-70
2021/06/30 05:10:16;;;;;;;15.43;9.02;;;13.40;99.90;;;;;;5074104;28;20025;-71
2021/06/30 05:12:42;;;;;;;16.20;9.57;;;13.40;99.90;;;;;;5074717;28;20047;-72
2021/06/30 05:15:07;;;;;;;12.60;8.68;;;13.30;99.90;;;;;;5074101;28;20056;-70
2021/06/30 05:17:33;;;;;;;14.25;9.25;;;13.30;99.90;;;;;;5074335;28;20078;-71
2021/06/30 05:19:59;;;;;;;14.93;9.05;;;13.40;99.90;;;;;;5074002;28;20381;-70
2021/06/30 05:22:24;;;;;;;11.52;8.85;;;13.40;99.90;;;;;;5074027;28;20025;-70
2021/06/30 05:24:50;;;;;;;11.07;8.65;;;13.40;99.90;;;;;;5074571;28;20020;-71
2021/06/30 05:27:15;;;;;;;10.07;9.00;;;13.30;99.90;;;;;;5073823;28;20035;-71
2021/06/30 05:29:41;;;;;;;16.40;9.18;;;13.30;99.90;;;;;;5076585;28;20023;-70
2021/06/30 05:32:06;;;;;;;13.25;9.65;;;13.40;99.90;;;;;;5093841;28;20084;-71
2021/06/30 05:34:32;;;;;;;10.15;7.85;;;13.50;99.90;;;;;;5094443;28;20241;-70
2021/06/30 05:36:58;;;;;;;10.63;8.38;;;13.50;99.90;;;;;;5078877;28;20106;-71
2021/06/30 05:39:23;;;;;;;12.48;8.27;;;13.50;99.90;;;;;;5094189;28;20396;-70
2021/06/30 05:41:49;;;;;;;14.48;8.95;;;13.60;99.90;;;;;;5094280;28;20025;-71
2021/06/30 05:44:15;;;;;;;15.07;9.25;;;13.60;99.90;;;;;;5093252;28;20020;-71
2021/06/30 05:46:42;;;;;;;11.82;8.45;;;13.60;99.90;;;;;;5093993;28;20048;-70
2021/06/30 05:49:11;;;;;;;13.43;8.98;;;13.60;99.90;;;;;;5093624;28;20047;-71
2021/06/30 05:51:37;;;;;;;17.27;10.00;;;13.70;99.90;;;;;;5093442;28;20046;-70
2021/06/30 05:54:02;;;;;;;16.92;9.15;;;13.70;99.90;;;;;;5093594;28;20091;-70
2021/06/30 05:56:28;;;;;;;11.55;8.25;;;13.70;99.90;;;;;;5093695;28;20024;-71
2021/06/30 05:58:53;;;;;;;14.00;7.50;;;13.60;99.90;;;;;;5078856;28;20033;-70
2021/06/30 06:01:20;;;;;;;14.27;7.68;;;13.60;99.90;;;;;;5089073;28;20036;-71
2021/06/30 06:03:47;;;;;;;11.98;7.82;;;13.60;99.90;;;;;;5090501;28;20043;-71
2021/06/30 06:06:13;;;;;;;12.60;7.35;;;13.50;99.90;;;;;;5091541;28;20074;-71
2021/06/30 06:08:40;;;;;;;8.32;7.45;;;13.50;99.90;;;;;;5090442;28;20460;-70
2021/06/30 06:11:11;;;;;;;8.57;6.65;;;13.40;99.90;;;;;;5087173;28;20086;-70
2021/06/30 06:13:37;;;;;;;11.00;6.55;;;13.40;99.90;;;;;;5090427;28;20110;-70
2021/06/30 06:16:02;;;;;;;11.93;6.78;;;13.40;99.90;;;;;;5090168;28;20024;-71
2021/06/30 06:18:28;;;;;;;11.93;6.60;;;13.40;99.90;;;;;;5084790;28;20073;-71
2021/06/30 06:20:53;;;;;;;8.15;6.28;;;13.40;99.90;;;;;;5082726;28;20051;-71
2021/06/30 06:23:19;;;;;;;9.20;6.85;;;13.40;99.90;;;;;;5079979;28;20009;-72
2021/06/30 06:25:44;;;;;;;14.50;9.05;;;13.10;99.90;;;;;;5085510;28;20033;-72
2021/06/30 06:28:10;;;;;;;9.27;6.20;;;13.60;99.90;;;;;;5072965;28;20020;-73
2021/06/30 06:30:35;;;;;;;10.27;6.68;;;13.60;99.90;;;;;;5073596;28;20070;-69
2021/06/30 06:33:01;;;;;;;12.07;7.18;;;13.70;99.90;;;;;;5072587;28;20032;-71
2021/06/30 06:35:27;;;;;;;8.50;6.50;;;13.70;99.90;;;;;;5077451;28;20021;-71
2021/06/30 06:37:52;;;;;;;12.80;7.45;;;13.70;99.90;;;;;;5088877;28;20024;-71
2021/06/30 06:40:18;;;;;;;9.75;7.78;;;13.70;99.90;;;;;;5079271;28;20472;-71
2021/06/30 06:42:44;;;;;;;13.90;7.45;;;13.80;99.90;;;;;;5072755;28;20024;-68
2021/06/30 06:45:10;;;;;;;8.95;7.75;;;13.90;99.90;;;;;;5072671;28;20068;-70
2021/06/30 06:47:36;;;;;;;10.02;7.40;;;13.90;99.90;;;;;;5072441;28;20044;-70
2021/06/30 06:50:02;;;;;;;9.25;6.30;;;14.00;99.90;;;;;;5081792;28;20024;-71
2021/06/30 06:52:27;;;;;;;12.55;7.38;;;14.00;99.90;;;;;;5090177;28;20020;-71
2021/06/30 06:54:53;;;;;;;12.13;7.10;;;14.10;99.90;;;;;;5084276;28;20032;-70
2021/06/30 06:57:19;;;;;;;10.45;6.88;;;14.10;99.90;;;;;;5076805;28;20024;-71
2021/06/30 06:59:44;;;;;;;8.20;6.80;;;14.10;99.90;;;;;;5071254;28;20120;-70
2021/06/30 07:02:10;;;;;;;9.15;5.88;;;14.20;99.90;;;;;;5086526;28;20107;-71
2021/06/30 07:04:35;;;;;;;7.75;6.93;;;14.20;99.90;;;;;;5084361;28;20106;-72
2021/06/30 07:07:02;;;;;;;9.45;6.53;;;14.20;99.90;;;;;;5083629;28;20020;-71
2021/06/30 07:09:27;;;;;;;8.27;6.85;;;14.20;99.90;;;;;;5086195;28;20028;-71
2021/06/30 07:11:56;;;;;;;10.27;6.53;;;14.20;99.90;;;;;;5082841;28;20065;-70
2021/06/30 07:14:21;;;;;;;9.75;6.78;;;14.20;99.90;;;;;;5091810;28;20028;-71
2021/06/30 07:16:47;;;;;;;7.60;6.80;;;14.20;99.90;;;;;;5079812;28;20089;-70
2021/06/30 07:19:12;;;;;;;8.63;7.00;;;14.30;99.90;;;;;;5070805;28;20029;-70
2021/06/30 07:21:38;;;;;;;16.42;6.75;;;14.30;99.90;;;;;;5071258;28;20016;-70
2021/06/30 07:24:06;;;;;;;9.30;6.38;;;14.30;99.90;;;;;;5071492;28;20016;-71
2021/06/30 07:26:32;;;;;;;8.02;6.30;;;14.20;99.90;;;;;;5072628;28;20085;-70
2021/06/30 07:28:58;;;;;;;6.95;6.30;;;14.20;99.90;;;;;;5072033;28;20020;-71
2021/06/30 07:31:23;;;;;;;10.25;6.03;;;14.20;99.90;;;;;;5072548;28;20066;-70
2021/06/30 07:33:49;;;;;;;8.10;5.60;;;14.20;99.90;;;;;;5072938;28;20457;-70
2021/06/30 07:36:16;;;;;;;7.28;6.55;;;14.20;99.90;;;;;;5083015;28;20020;-70
2021/06/30 07:38:43;;;;;;;7.50;6.32;;;14.20;99.90;;;;;;5074763;28;20025;-72
2021/06/30 07:41:09;;;;;;;8.07;6.05;;;14.20;99.90;;;;;;5071600;28;20086;-73
2021/06/30 07:43:34;;;;;;;8.40;6.15;;;14.20;99.90;;;;;;5071010;28;20460;-72
2021/06/30 07:46:00;;;;;;;7.43;6.60;;;14.20;99.90;;;;;;5071349;28;20051;-73
2021/06/30 07:48:26;;;;;;;9.35;6.88;;;14.20;99.90;;;;;;5085188;28;20024;-73
2021/06/30 07:50:51;;;;;;;8.23;6.70;;;14.20;99.90;;;;;;5085936;28;20016;-73
2021/06/30 07:53:17;;;;;;;11.02;6.07;;;14.20;99.90;;;;;;5082923;28;20028;-75
2021/06/30 07:55:46;;;;;;;9.65;6.55;;;14.20;99.90;;;;;;5088632;28;20131;-73
2021/06/30 07:58:12;;;;;;;11.35;7.55;;;14.20;99.90;;;;;;5070971;28;20392;-73
2021/06/30 08:00:38;;;;;;;7.85;7.10;;;14.30;99.90;;;;;;5087536;28;20532;-74
2021/06/30 08:03:04;;;;;;;11.68;7.85;;;14.30;99.90;;;;;;5083226;28;20095;-73
2021/06/30 08:05:32;;;;;;;9.95;7.45;;;14.20;99.90;;;;;;5071436;28;20111;-73
2021/06/30 08:07:57;;;;;;;9.43;7.80;;;14.20;99.90;;;;;;5087725;28;20021;-72
2021/06/30 08:10:23;;;;;;;9.93;8.27;;;14.20;99.90;;;;;;5070765;28;20229;-73
2021/06/30 08:12:49;;;;;;;12.73;8.57;;;14.20;99.90;;;;;;5085156;28;20024;-73
2021/06/30 08:15:15;;;;;;;10.07;9.02;;;14.20;99.90;;;;;;5089399;28;20024;-73
2021/06/30 08:17:40;;;;;;;11.10;9.05;;;14.30;99.90;;;;;;5086537;28;20032;-73
2021/06/30 08:20:07;;;;;;;13.27;10.20;;;14.30;99.90;;;;;;5089188;28;20031;-74
2021/06/30 08:22:33;;;;;;;11.68;10.00;;;14.40;99.90;;;;;;5089637;28;20103;-74
2021/06/30 08:24:59;;;;;;;11.90;9.75;;;14.50;99.90;;;;;;5086990;28;20020;-74
2021/06/30 08:27:24;;;;;;;15.10;10.35;;;14.50;99.90;;;;;;5087531;28;20032;-73
2021/06/30 08:29:50;;;;;;;13.68;10.48;;;14.50;99.90;;;;;;5071439;28;20461;-74
2021/06/30 08:32:16;;;;;;;19.40;10.77;;;14.50;99.90;;;;;;5075024;28;20063;-73
2021/06/30 08:34:42;;;;;;;16.60;10.75;;;14.60;99.90;;;;;;5096002;28;20051;-73
2021/06/30 08:37:08;;;;;;;19.70;10.70;;;14.60;99.90;;;;;;5090897;28;20065;-69
2021/06/30 08:39:34;;;;;;;17.65;10.45;;;14.70;99.90;;;;;;5089006;28;20060;-72
2021/06/30 08:42:00;;;;;;;18.77;10.13;;;14.80;99.90;;;;;;5075131;28;20071;-72
2021/06/30 08:44:26;;;;;;;15.77;10.00;;;14.80;99.90;;;;;;5079651;28;20046;-73
2021/06/30 08:46:56;;;;;;;13.30;9.88;;;14.80;99.90;;;;;;5082531;28;20139;-73
2021/06/30 08:49:26;;;;;;;16.80;9.17;;;14.40;99.90;;;;;;5076635;28;20042;-73
2021/06/30 08:51:53;;;;;;;15.70;9.13;;;14.90;99.90;;;;;;5085815;28;20019;-72
2021/06/30 08:54:20;;;;;;;17.60;9.85;;;14.90;99.90;;;;;;5089320;28;20024;-72
2021/06/30 08:56:46;;;;;;;11.90;8.68;;;14.90;99.90;;;;;;5095132;28;20024;-73
2021/06/30 08:59:15;;;;;;;17.73;9.32;;;14.90;99.90;;;;;;5103939;28;20032;-72
2021/06/30 09:01:41;;;;;;;14.05;8.18;;;14.90;99.90;;;;;;5104341;28;20024;-74
2021/06/30 09:04:09;;;;;;;13.77;8.43;;;15.00;99.90;;;;;;5101389;28;20034;-74
2021/06/30 09:06:35;;;;;;;13.18;8.38;;;15.00;99.90;;;;;;5105750;28;20032;-73
2021/06/30 09:09:05;;;;;;;12.70;8.25;;;15.10;99.90;;;;;;5100496;28;20017;-73
2021/06/30 09:11:32;;;;;;;11.25;8.73;;;15.10;99.90;;;;;;5087414;28;20024;-71
2021/06/30 09:14:20;;;;;;;14.43;8.60;;;15.10;99.90;;;;;;5084412;28;21359;-74
2021/06/30 09:17:04;;;;;;;10.63;8.43;;;15.10;99.90;;;;;;5097514;28;20364;-73
2021/06/30 09:20:04;;;;;;;10.23;7.78;;;15.10;99.90;;;;;;5095784;28;20020;-72
2021/06/30 09:22:41;;;;;;;10.77;7.78;;;15.10;99.90;;;;;;5097261;28;20089;-74
2021/06/30 09:25:07;;;;;;;10.13;7.68;;;15.10;99.90;;;;;;5093223;28;20074;-72
2021/06/30 09:27:43;;;;;;;10.75;7.93;;;15.10;99.90;;;;;;5097779;28;20016;-72
2021/06/30 09:30:11;;;;;;;12.82;8.23;;;15.20;99.90;;;;;;5107118;28;20375;-73
2021/06/30 09:32:56;;;;;;;9.35;7.03;;;15.30;99.90;;;;;;5110742;28;20035;-72
2021/06/30 09:35:35;;;;;;;10.02;7.18;;;15.30;99.90;;;;;;5104963;28;20034;-72
2021/06/30 09:38:30;;;;;;;10.57;6.82;;;15.40;99.90;;;;;;5109350;28;20039;-74
2021/06/30 09:40:56;;;;;;;9.18;6.22;;;15.40;99.90;;;;;;5111063;28;20114;-74
2021/06/30 09:43:27;;;;;;;11.45;6.43;;;15.40;99.90;;;;;;5105993;28;20108;-73
2021/06/30 09:45:54;;;;;;;11.38;6.05;;;15.30;99.90;;;;;;5110709;28;20040;-74
2021/06/30 09:48:32;;;;;;;12.02;7.25;;;15.30;99.90;;;;;;5107676;28;20415;-70
2021/06/30 09:51:00;;;;;;;7.22;6.30;;;15.50;99.90;;;;;;5110183;28;20095;-73
2021/06/30 09:53:32;;;;;;;6.60;5.35;;;15.50;99.90;;;;;;5101047;28;20020;-73
2021/06/30 09:56:38;;;;;;;5.80;4.65;;;15.60;99.90;;;;;;5090211;28;20008;-74
2021/06/30 09:59:09;;;;;;;8.27;5.18;;;15.70;99.90;;;;;;5070449;28;20424;-72
2021/06/30 10:01:36;;;;;;;11.40;6.00;;;15.70;99.90;;;;;;5083789;28;20031;-74
2021/06/30 10:04:02;;;;;;;8.38;6.35;;;15.80;99.90;;;;;;5089406;28;20092;-73
2021/06/30 10:06:29;;;;;;;5.97;5.38;;;15.90;99.90;;;;;;5085109;28;20033;-72
2021/06/30 10:08:56;;;;;;;6.93;4.78;;;16.00;99.90;;;;;;5084507;28;20028;-74
2021/06/30 10:11:22;;;;;;;5.50;4.20;;;16.00;99.90;;;;;;5085106;28;20051;-74
2021/06/30 10:13:48;;;;;;;7.88;4.55;;;16.00;99.90;;;;;;5091499;28;20082;-73
2021/06/30 10:16:18;;;;;;;6.38;4.15;;;16.20;99.90;;;;;;5089650;28;20036;-75
2021/06/30 10:18:44;;;;;;;5.47;4.50;;;16.30;99.90;;;;;;5090075;28;20523;-74
2021/06/30 10:21:11;;;;;;;5.25;4.75;;;16.30;99.90;;;;;;5083524;28;20042;-73
2021/06/30 10:23:38;;;;;;;8.07;5.55;;;16.40;99.90;;;;;;5087902;28;20021;-73
2021/06/30 10:26:03;;;;;;;9.05;5.93;;;16.40;99.90;;;;;;5086814;28;20074;-73
2021/06/30 10:28:30;;;;;;;8.85;5.00;;;16.60;99.90;;;;;;5083962;28;20044;-74
2021/06/30 10:30:56;;;;;;;6.47;5.18;;;16.70;99.90;;;;;;5090941;28;20027;-72
2021/06/30 10:33:34;;;;;;;6.32;5.00;;;16.70;99.90;;;;;;5092188;28;20020;-73
2021/06/30 10:36:00;;;;;;;8.13;5.10;;;17.00;99.90;;;;;;5094315;28;20031;-73
2021/06/30 10:38:50;;;;;;;4.60;4.20;;;17.10;99.90;;;;;;5089893;28;20119;-74
2021/06/30 10:41:38;;;;;;;4.63;3.35;;;17.20;99.90;;;;;;5088549;28;20518;-72
2021/06/30 10:44:15;;;;;;;4.10;3.30;;;17.40;99.90;;;;;;5084421;28;20031;-74
2021/06/30 10:46:42;;;;;;;4.60;3.45;;;17.40;99.90;;;;;;5083917;28;20036;-73
2021/06/30 10:49:35;;;;;;;3.35;3.15;;;17.30;99.90;;;;;;5083245;28;20020;-72
2021/06/30 10:52:03;;;;;;;4.22;3.67;;;17.30;99.90;;;;;;5087099;28;20119;-74
2021/06/30 10:54:32;;;;;;;3.92;3.08;;;17.30;99.90;;;;;;5081224;28;20119;-73
2021/06/30 10:57:23;;;;;;;4.43;3.47;;;17.40;99.90;;;;;;5089367;28;20103;-73
2021/06/30 11:00:04;;;;;;;4.30;3.70;;;17.40;99.90;;;;;;5082229;28;20036;-73
2021/06/30 11:02:33;;;;;;;3.30;3.00;;;17.40;99.90;;;;;;5084924;28;20040;-73
2021/06/30 11:05:13;;;;;;;4.25;3.85;;;17.30;99.90;;;;;;5087113;28;20483;-73
2021/06/30 11:07:40;;;;;;;3.65;3.35;;;17.20;99.90;;;;;;5085349;28;20468;-73
2021/06/30 11:10:20;;;;;;;5.75;4.03;;;17.10;99.90;;;;;;5084038;28;20115;-72
2021/06/30 11:12:58;;;;;;;4.70;4.20;;;17.10;99.90;;;;;;5080357;28;20035;-74
2021/06/30 11:15:36;;;;;;;4.43;3.92;;;17.00;99.90;;;;;;5081033;28;20042;-74
2021/06/30 11:18:11;;;;;;;3.33;2.83;;;16.90;99.90;;;;;;5077718;28;20103;-73
2021/06/30 11:20:50;;;;;;;4.18;3.50;;;16.80;99.90;;;;;;5076800;28;20028;-72
2021/06/30 11:23:21;;;;;;;3.83;3.43;;;16.70;99.90;;;;;;5083908;28;20036;-72
2021/06/30 11:25:48;;;;;;;3.47;3.17;;;16.70;99.90;;;;;;5079981;28;20484;-72
2021/06/30 11:28:36;;;;;;;6.82;3.10;;;16.70;99.90;;;;;;5081681;28;20039;-73
2021/06/30 11:31:26;;;;;;;4.32;3.00;;;16.70;99.90;;;;;;5061132;28;20016;-73
2021/06/30 11:34:14;;;;;;;3.90;3.53;;;16.50;99.90;;;;;;5076926;28;20460;-72
2021/06/30 11:36:41;;;;;;;5.00;3.58;;;16.60;99.90;;;;;;5085535;28;20152;-74
2021/06/30 11:39:14;;;;;;;8.70;3.85;;;16.60;99.90;;;;;;5080993;28;20060;-73
2021/06/30 11:41:46;;;;;;;6.50;4.03;;;16.60;99.90;;;;;;5080981;28;20128;-73
2021/06/30 11:44:13;;;;;;;7.18;5.00;;;16.50;99.90;;;;;;5072759;28;20198;-72
2021/06/30 11:46:40;;;;;;;5.55;4.85;;;16.40;99.90;;;;;;5074730;28;20396;-73
2021/06/30 11:49:08;;;;;;;6.82;4.32;;;16.50;99.90;;;;;;5070324;28;20032;-72
2021/06/30 11:51:34;;;;;;;4.40;3.97;;;16.50;99.90;;;;;;5088095;28;20030;-72
2021/06/30 11:54:00;;;;;;;6.68;4.65;;;16.60;99.90;;;;;;5088120;28;20021;-73
2021/06/30 11:56:31;;;;;;;8.00;5.10;;;16.60;99.90;;;;;;5089471;28;20031;-73
2021/06/30 11:58:57;;;;;;;6.35;4.60;;;16.60;99.90;;;;;;5090138;28;20103;-73
2021/06/30 12:01:26;;;;;;;9.52;5.07;;;16.60;99.90;;;;;;5089772;28;20119;-73
2021/06/30 12:04:15;;;;;;;5.20;4.63;;;16.60;99.90;;;;;;5075299;28;20031;-74
2021/06/30 12:06:42;;;;;;;7.00;5.78;;;16.50;99.90;;;;;;5079954;28;20031;-73
2021/06/30 12:09:13;;;;;;;5.45;4.95;;;16.50;99.90;;;;;;5076464;28;20353;-73
2021/06/30 12:11:42;;;;;;;6.30;5.70;;;16.50;99.90;;;;;;5072521;28;20020;-74
2021/06/30 12:14:19;;;;;;;7.00;5.93;;;16.60;99.90;;;;;;5070563;28;20050;-73
2021/06/30 12:16:50;;;;;;;5.45;4.95;;;16.60;99.90;;;;;;5074882;28;20024;-73
2021/06/30 12:19:19;;;;;;;6.32;4.88;;;16.50;99.90;;;;;;5084124;28;20032;-73
2021/06/30 12:21:46;;;;;;;6.85;4.97;;;16.50;99.90;;;;;;5082295;28;20039;-73
2021/06/30 12:24:18;;;;;;;4.70;3.78;;;16.50;99.90;;;;;;5083597;28;20043;-74
2021/06/30 12:27:01;;;;;;;5.18;3.90;;;16.40;99.90;;;;;;5079424;28;20052;-74
2021/06/30 12:29:27;;;;;;;4.70;4.30;;;16.30;99.90;;;;;;5074734;28;21651;-73
2021/06/30 12:31:53;;;;;;;6.97;5.57;;;16.30;99.90;;;;;;5075923;28;20379;-73
2021/06/30 12:34:19;;;;;;;6.60;5.90;;;16.20;99.90;;;;;;5072192;28;20085;-74
2021/06/30 12:36:45;;;;;;;9.10;5.55;;;16.20;99.90;;;;;;5071003;28;20024;-74
2021/06/30 12:39:21;;;;;;;7.28;6.22;;;16.10;99.90;;;;;;5073215;28;20094;-73
2021/06/30 12:41:51;;;;;;;7.03;5.20;;;16.10;99.90;;;;;;5069481;28;20032;-74
2021/06/30 12:44:17;;;;;;;5.90;5.30;;;16.10;99.90;;;;;;5069205;28;20036;-73
2021/06/30 12:46:42;;;;;;;5.30;4.43;;;16.00;99.90;;;;;;5068673;28;20515;-74